2000 Severe Tropical Cyclone NORMAN (2000060S17123)


IBTrACS version v04r00. Visit IBTrACS website for data access.
Please direct all questions to the IBTrACS Q and A forum

Storm track - Intensity - Wind Radii - Intensity Data - Source Data - All data

Summary Information

Satellite image near maximum intensity
Storm ID 2000060S17123
Start Feb 28 22Z
Max Intensity 120 kt (Mar 3 06Z), 930 mb (Mar 2 22Z)
End Mar 10 04Z
ATCF IDs ,SH162000
Track status Best track data.

Storm track plot

Map of storm track

Intensity plots

Map of storm track

Radial wind information

Map of storm track

Position and Intensity Table

BASIN ISO_TIME_________ NATURE LAT LON WMO WIND WMO PRES USA WIND BOM WIND BOM PRES NEUMANN WIND
degrees north degrees east kts mb kts kts mb kts
SI 2000-02-28 22:00:00 NR -17.30 123.00 25 1000 25 1000
SI 2000-02-29 00:00:00 NR -17.36 122.80 26 1000
SI 03:00:00 NR -17.46 122.39 29 1000
SI 04:00:00 NR -17.50 122.20 30 1000 30 1000
SI 06:00:00 NR -17.59 121.73 31 998
SI 09:00:00 NR -17.74 120.89 34 995
SI 10:00:00 NR -17.80 120.60 35 995 35 995
SI 12:00:00 TS -18.15 119.90 25 36 993 25
SI 15:00:00 TS -18.44 119.20 25 39 990 25
SI 16:00:00 TS -18.55 118.99 40 990 25 40 990 25
SI 18:00:00 TS -18.65 118.59 25 43 988 25
SI 21:00:00 TS -18.63 117.92 25 48 985 25
SI 22:00:00 TS -18.61 117.70 50 985 25 50 985 25
SI 2000-03-01 00:00:00 TS -18.54 117.28 25 51 983 25
SI 03:00:00 TS -18.49 116.79 30 54 980 30
SI 04:00:00 TS -18.48 116.64 55 980 31 55 980 31
SI 06:00:00 TS -18.48 116.35 35 56 978 35
SI 09:00:00 TS -18.45 115.92 40 59 975 40
SI 10:00:00 TS -18.44 115.77 60 975 41 60 975 41
SI 12:00:00 TS -18.42 115.50 45 63 971 45
SI 15:00:00 TS -18.42 115.10 50 68 966 50
SI 16:00:00 TS -18.43 114.96 70 965 51 70 965 51
SI 18:00:00 TS -18.47 114.65 55 71 963 55
SI 21:00:00 TS -18.58 114.12 60 74 960 60
SI 22:00:00 TS -18.63 113.93 75 960 61 75 960 61
SI 2000-03-02 00:00:00 TS -18.72 113.56 65 76 958 65
SI 03:00:00 TS -18.85 112.98 65 79 955 65
SI 04:00:00 TS -18.90 112.77 80 955 65 80 955 65
SI 06:00:00 TS -19.00 112.34 65 81 953 65
SI 09:00:00 TS -19.15 111.62 67 84 950 67
SI 10:00:00 TS -19.21 111.37 85 950 68 85 950 68
SI 12:00:00 TS -19.30 110.87 70 88 946 70
SI 15:00:00 TS -19.43 110.13 82 93 941 82
SI 16:00:00 TS -19.46 109.88 95 940 86 95 940 86
SI 18:00:00 TS -19.53 109.37 95 96 936 95
SI 21:00:00 TS -19.60 108.56 102 99 931 102
SI 22:00:00 TS -19.61 108.30 100 930 105 100 930 105
SI 2000-03-03 00:00:00 TS -19.63 107.79 110 95 936 110
SI 03:00:00 TS -19.65 107.06 115 87 946 115
SI 04:00:00 TS -19.67 106.80 85 950 116 85 950 116
SI 06:00:00 TS -19.73 106.24 120 81 954 120
SI 09:00:00 TS -19.88 105.29 117 76 962 117
SI 10:00:00 TS -19.93 104.97 75 965 116 75 965 116
SI 12:00:00 TS -20.00 104.31 115 73 965 115
SI 15:00:00 TS -20.07 103.33 115 70 965 115
SI 16:00:00 TS -20.10 103.01 70 965 115 70 965 115
SI 18:00:00 TS -20.16 102.40 115 70 965 115
SI 21:00:00 TS -20.26 101.55 110 70 965 110
SI 22:00:00 TS -20.29 101.27 70 965 108 70 965 108
SI 2000-03-04 00:00:00 TS -20.32 100.72 105 66 968 105
SI 03:00:00 TS -20.33 99.89 105 61 973 105
SI 04:00:00 TS -20.33 99.62 60 975 105 60 975 105
SI 06:00:00 TS -20.34 99.12 105 58 976 105
SI 09:00:00 TS -20.40 98.39 105 55 979 105
SI 10:00:00 TS -20.43 98.16 55 980 105 55 980 105
SI 12:00:00 TS -20.47 97.73 105 55 980 105
SI 15:00:00 TS -20.48 97.12 97 55 980 97
SI 16:00:00 TS -20.47 96.92 55 980 94 55 980 94
SI 18:00:00 TS -20.45 96.53 90 55 980 90
SI 21:00:00 TS -20.44 95.94 82 55 980 82
SI 22:00:00 TS -20.44 95.76 55 980 79 55 980 79
SI 2000-03-05 00:00:00 TS -20.44 95.43 75 55 980 75
SI 03:00:00 TS -20.42 95.02 70 55 980 70
SI 04:00:00 TS -20.42 94.90 55 980 68 55 980 68
SI 06:00:00 TS -20.42 94.65 65 55 980 65
SI 09:00:00 TS -20.45 94.27 65 55 980 65
SI 10:00:00 TS -20.46 94.14 55 980 65 55 980 65
SI 12:00:00 TS -20.47 93.90 65 55 980 65
SI 15:00:00 TS -20.46 93.51 65 55 980 65
SI 16:00:00 TS -20.46 93.39 55 980 65 55 980 65
SI 18:00:00 TS -20.48 93.18 65 55 980 65
SI 21:00:00 TS -20.52 92.94 65 55 980 65
SI 22:00:00 TS -20.54 92.87 55 980 65 55 980 65
SI 2000-03-06 00:00:00 TS -20.57 92.73 65 55 980 65
SI 03:00:00 TS -20.64 92.49 65 55 980 65
SI 04:00:00 TS -20.68 92.42 55 980 65 55 980 65
SI 06:00:00 TS -20.78 92.30 65 55 980 65
SI 09:00:00 TS -20.93 92.13 65 55 980 65
SI 10:00:00 TS -20.99 92.08 55 980 65 55 980 65
SI 12:00:00 TS -21.15 91.99 65 55 980 65
SI 15:00:00 TS -21.56 91.90 65 55 980 65
SI 16:00:00 TS -21.71 91.87 55 980 65 55 980 65
SI 18:00:00 TS -22.01 91.79 65 53 981 65
SI 21:00:00 TS -22.31 91.68 65 50 984 65
SI 22:00:00 TS -22.40 91.65 50 985 65 50 985 65
SI 2000-03-07 00:00:00 TS -22.57 91.63 65 50 985 65
SI 03:00:00 TS -22.86 91.59 62 50 985 62
SI 04:00:00 TS -22.96 91.59 50 985 61 50 985 61
SI 06:00:00 TS -23.18 91.62 60 50 985 60
SI 09:00:00 TS -23.50 91.79 62 50 985 62
SI 10:00:00 TS -23.59 91.86 50 985 63 50 985 63
SI 12:00:00 TS -23.72 92.02 65 46 986 65
SI 15:00:00 TS -23.82 92.28 62 41 989 62
SI 16:00:00 TS -23.84 92.36 40 990 61 40 990 61
SI 18:00:00 TS -23.88 92.49 60 38 991 60
SI 21:00:00 TS -23.98 92.56 57 35 994 57
SI 22:00:00 TS -24.01 92.57 35 995 56 35 995 56
SI 2000-03-08 00:00:00 TS -24.05 92.56 55 35 995 55
SI 03:00:00 TS -24.01 92.52 50 35 995 50
SI 04:00:00 TS -23.99 92.51 35 995 48 35 995 48
SI 06:00:00 TS -23.93 92.54 45 35 995 45
SI 09:00:00 TS -23.86 92.70 37 35 995 37
SI 10:00:00 TS -23.84 92.78 35 995 34 35 995 34
SI 12:00:00 TS -23.82 92.93 30 31 996 30
SI 15:00:00 TS -23.83 93.12 27 26 999 27
SI 16:00:00 TS -23.83 93.09 25 1000 26 25 1000 26
SI 18:00:00 TS -23.81 92.98 25 25 1000 25
SI 21:00:00 NR -23.71 92.36 25 1000
SI 22:00:00 NR -23.70 92.30 25 1000 25 1000
SI 2000-03-09 00:00:00 NR -23.70 92.23 25 1000
SI 03:00:00 NR -23.71 92.03 25 1000
SI 04:00:00 NR -23.70 91.90 25 1000 25 1000
SI 06:00:00 NR -23.66 91.47 25 1000
SI 09:00:00 NR -23.54 90.72 25 1000
SI 10:00:00 NR -23.50 90.50 25 1000 25 1000
SI 12:00:00 NR -23.40 90.26 25 1000
SI 15:00:00 NR -23.25 89.95 25 1000
SI 16:00:00 NR -23.20 89.80 25 1000
SI 18:00:00 NR -23.13 89.27 23 1001
SI 21:00:00 NR -23.03 88.42 20 1004
SI 22:00:00 NR -23.00 88.20 20 1005
SI 2000-03-10 00:00:00 NR -22.93 87.93 20 1005
SI 03:00:00 NR -22.83 87.81 20 1005
SI 04:00:00 NR -22.80 87.80 20 1005

Source Information

Agency Information
USA bsh162000.txt
TOKYO
CMA
HKO
NEWDELHI
REUNION
BOM IDCKMSTM0S.csv:Line=20651:NORMAN
NADI
WELLINGTON
DS824
TD9636
TD9635
NEUMANN tracks.sh:Storm=1191:NORMAN:16S:BSH162000
MLC

All available IBTrACS Data

SEASON BASIN SUBBASIN ISO_TIME_________ NATURE LAT LON WMO WIND WMO PRES WMO AGENCY DIST2LAND LANDFALL IFLAG USA AGENCY USA ATCF_ID USA LAT USA LON USA STATUS USA WIND USA SSHS BOM LAT BOM LON BOM TYPE BOM WIND BOM PRES BOM CI BOM ROCI BOM EYE BOM POS_METHOD BOM PRES_METHOD NEUMANN LAT NEUMANN LON NEUMANN CLASS NEUMANN WIND STORM SPEED STORM DIR
Year degrees north degrees east kts mb km km degrees north degrees east kts 1 degrees north degrees east kts mb 1 nmile nmile degrees north degrees east kts kts degrees
2000 SI WA 2000-02-28 22:00:00 NR -17.30 123.00 25 1000 bom 0 0 ______O_______ -1 -17.30 123.00 20 25 1000 2.00 2 4 6 253
2000 SI WA 2000-02-29 00:00:00 NR -17.36 122.80 0 0 ______P_______ -1 -17.36 122.80 20 26 1000 7 255
2000 SI WA 03:00:00 NR -17.46 122.39 0 0 ______P_______ -1 -17.46 122.39 20 29 1000 9 256
2000 SI WA 04:00:00 NR -17.50 122.20 30 1000 bom 0 0 ______O_______ -1 -17.50 122.20 20 30 1000 2.50 3 4 13 259
2000 SI WA 06:00:00 NR -17.59 121.73 42 42 ______P_______ -1 -17.59 121.73 20 31 998 15 259
2000 SI WA 09:00:00 NR -17.74 120.89 127 127 ______P_______ -1 -17.74 120.89 20 34 995 16 259
2000 SI WA 10:00:00 NR -17.80 120.60 35 995 bom 146 146 ______O_______ -1 -17.80 120.60 30 35 995 3.00 3 5 21 247
2000 SI WA 12:00:00 TS -18.15 119.90 187 183 O_____P_____O_ jtwc_sh SH162000 -18.60 119.60 TD 25 -1 -17.93 120.04 30 36 993 -18.60 119.60 TC 25 18 244
2000 SI WA 15:00:00 TS -18.44 119.20 189 178 P_____P_____P_ SH162000 -18.75 119.15 TD 25 -1 -18.13 119.24 30 39 990 -18.75 119.15 TC 25 14 245
2000 SI WA 16:00:00 TS -18.55 118.99 40 990 bom 168 168 P_____O_____P_ SH162000 -18.79 118.99 TD 25 -1 -18.20 119.00 30 40 990 3.00 377 3 5 -18.79 118.99 TC 25 12 250
2000 SI WA 18:00:00 TS -18.65 118.59 165 165 O_____P_____O_ jtwc_sh SH162000 -18.80 118.60 TD 25 -1 -18.35 118.56 30 43 988 -18.80 118.60 TC 25 12 265
2000 SI WA 21:00:00 TS -18.63 117.92 202 202 P_____P_____P_ SH162000 -18.67 117.89 TD 25 -1 -18.56 117.98 30 48 985 -18.67 117.89 TC 25 13 273
2000 SI WA 22:00:00 TS -18.61 117.70 50 985 bom 205 205 P_____O_____P_ SH162000 -18.61 117.65 TD 25 -1 -18.60 117.80 30 50 985 3.50 3 5 -18.61 117.65 TC 25 12 279
2000 SI WA 2000-03-01 00:00:00 TS -18.54 117.28 228 228 O_____P_____O_ jtwc_sh SH162000 -18.50 117.20 TD 25 -1 -18.63 117.45 30 51 983 -18.50 117.20 TC 25 10 278
2000 SI WA 03:00:00 TS -18.49 116.79 234 234 P_____P_____P_ SH162000 -18.43 116.71 TD 30 -1 -18.60 116.96 30 54 980 -18.43 116.71 TC 30 9 276
2000 SI WA 04:00:00 TS -18.48 116.64 55 980 bom 235 235 P_____O_____P_ SH162000 -18.42 116.57 TD 31 -1 -18.60 116.80 30 55 980 4.00 3 5 -18.42 116.57 TC 31 8 272
2000 SI WA 06:00:00 TS -18.48 116.35 236 236 O_____P_____O_ jtwc_sh SH162000 -18.40 116.30 TS 35 0 -18.64 116.46 30 56 978 -18.40 116.30 TC 35 8 272
2000 SI WA 09:00:00 TS -18.45 115.92 249 249 P_____P_____P_ SH162000 -18.33 115.89 TS 40 0 -18.69 115.96 30 59 975 -18.33 115.89 TC 40 8 274
2000 SI WA 10:00:00 TS -18.44 115.77 60 975 bom 263 263 P_____O_____P_ SH162000 -18.32 115.76 TS 41 0 -18.70 115.80 30 60 975 4.00 3 5 -18.32 115.76 TC 41 8 274
2000 SI WA 12:00:00 TS -18.42 115.50 276 276 O_____P_____O_ jtwc_sh SH162000 -18.30 115.50 TS 45 0 -18.67 115.50 30 63 971 -18.30 115.50 TC 45 8 273
2000 SI WA 15:00:00 TS -18.42 115.10 297 297 P_____P_____P_ SH162000 -18.32 115.12 TS 50 0 -18.61 115.06 30 68 966 -18.32 115.12 TC 50 8 270
2000 SI WA 16:00:00 TS -18.43 114.96 70 965 bom 303 303 P_____O_____P_ SH162000 -18.34 114.99 TS 51 0 -18.60 114.90 40 70 965 4.50 3 5 -18.34 114.99 TC 51 9 263
2000 SI WA 18:00:00 TS -18.47 114.65 316 316 O_____P_____O_ jtwc_sh SH162000 -18.40 114.70 TS 55 0 -18.61 114.54 40 71 963 -18.40 114.70 TC 55 10 259
2000 SI WA 21:00:00 TS -18.58 114.12 337 337 P_____P_____P_ SH162000 -18.53 114.19 TS 60 0 -18.67 113.98 40 74 960 -18.53 114.19 TC 60 10 257
2000 SI WA 22:00:00 TS -18.63 113.93 75 960 bom 349 346 P_____O_____P_ SH162000 -18.59 114.00 TS 61 0 -18.70 113.80 40 75 960 4.50 3 5 -18.59 114.00 TC 61 11 256
2000 SI WA 2000-03-02 00:00:00 TS -18.72 113.56 360 352 O_____P_____O_ jtwc_sh SH162000 -18.70 113.60 TY 65 1 -18.75 113.47 40 76 958 -18.70 113.60 TC 65 11 256
2000 SI WA 03:00:00 TS -18.85 112.98 351 351 P_____P_____P_ SH162000 -18.85 112.98 TY 65 1 -18.86 112.98 40 79 955 -18.85 112.98 TC 65 11 256
2000 SI WA 04:00:00 TS -18.90 112.77 80 955 bom 358 358 P_____O_____P_ SH162000 -18.90 112.76 TY 65 1 -18.90 112.80 40 80 955 5.00 3 5 -18.90 112.76 TC 65 13 257
2000 SI WA 06:00:00 TS -19.00 112.34 369 369 O_____P_____O_ jtwc_sh SH162000 -19.00 112.30 TY 65 1 -18.99 112.41 40 81 953 -19.00 112.30 TC 65 13 257
2000 SI WA 09:00:00 TS -19.15 111.62 391 391 P_____P_____P_ SH162000 -19.16 111.56 TY 67 1 -19.15 111.74 40 84 950 -19.16 111.56 TC 67 14 257
2000 SI WA 10:00:00 TS -19.21 111.37 85 950 bom 405 405 P_____O_____P_ SH162000 -19.21 111.30 TY 68 1 -19.20 111.50 40 85 950 5.00 12 4 5 -19.21 111.30 TC 68 15 258
2000 SI WA 12:00:00 TS -19.30 110.87 434 434 O_____P_____O_ jtwc_sh SH162000 -19.30 110.80 TY 70 1 -19.31 111.00 40 88 946 -19.30 110.80 TC 70 14 259
2000 SI WA 15:00:00 TS -19.43 110.13 492 492 P_____P_____P_ SH162000 -19.41 110.11 TY 82 1 -19.46 110.18 40 93 941 -19.41 110.11 TC 82 14 260
2000 SI WA 16:00:00 TS -19.46 109.88 95 940 bom 503 503 P_____O_____P_ SH162000 -19.45 109.88 TY 86 2 -19.50 109.90 40 95 940 5.50 12 4 5 -19.45 109.88 TC 86 14 262
2000 SI WA 18:00:00 TS -19.53 109.37 548 548 O_____P_____O_ jtwc_sh SH162000 -19.50 109.40 TY 95 2 -19.59 109.32 40 96 936 -19.50 109.40 TC 95 15 264
2000 SI WA 21:00:00 TS -19.60 108.56 617 617 P_____P_____P_ SH162000 -19.56 108.61 TY 102 3 -19.68 108.46 40 99 931 -19.56 108.61 TC 102 15 265
2000 SI WA 22:00:00 TS -19.61 108.30 100 930 bom 643 643 P_____O_____P_ SH162000 -19.57 108.34 TY 105 3 -19.70 108.20 40 100 930 6.00 12 4 5 -19.57 108.34 TC 105 15 267
2000 SI WA 2000-03-03 00:00:00 TS -19.63 107.79 688 688 O_____P_____O_ jtwc_sh SH162000 -19.60 107.80 TY 110 3 -19.70 107.77 40 95 936 -19.60 107.80 TC 110 14 268
2000 SI WA 03:00:00 TS -19.65 107.06 747 747 P_____P_____P_ SH162000 -19.63 107.02 TY 115 4 -19.69 107.14 40 87 946 -19.63 107.02 TC 115 14 268
2000 SI WA 04:00:00 TS -19.67 106.80 85 950 bom 775 775 P_____O_____P_ SH162000 -19.65 106.76 TY 116 4 -19.70 106.90 40 85 950 5.00 12 4 5 -19.65 106.76 TC 116 16 264
2000 SI WA 06:00:00 TS -19.73 106.24 832 832 O_____P_____O_ jtwc_sh SH162000 -19.70 106.20 TY 120 4 -19.79 106.32 40 81 954 -19.70 106.20 TC 120 17 261
2000 SI WA 09:00:00 TS -19.88 105.29 911 911 P_____P_____P_ SH162000 -19.84 105.27 TY 117 4 -19.96 105.34 40 76 962 -19.84 105.27 TC 117 18 261
2000 SI WA 10:00:00 TS -19.93 104.97 75 965 bom 940 940 P_____O_____P_ SH162000 -19.90 104.95 TY 116 4 -20.00 105.00 40 75 965 4.50 12 4 5 -19.90 104.95 TC 116 19 263
2000 SI WA 12:00:00 TS -20.00 104.31 1005 1005 O_____P_____O_ jtwc_sh SH162000 -20.00 104.30 TY 115 4 -20.01 104.33 40 73 965 -20.00 104.30 TC 115 19 265
2000 SI WA 15:00:00 TS -20.07 103.33 1102 1102 P_____P_____P_ SH162000 -20.11 103.33 TY 115 4 -19.99 103.32 40 70 965 -20.11 103.33 TC 115 18 266
2000 SI WA 16:00:00 TS -20.10 103.01 70 965 bom 1132 1132 P_____O_____P_ SH162000 -20.15 103.01 TY 115 4 -20.00 103.00 40 70 965 4.50 12 4 5 -20.15 103.01 TC 115 18 264
2000 SI WA 18:00:00 TS -20.16 102.40 1189 1189 O_____P_____O_ jtwc_sh SH162000 -20.20 102.40 TY 115 4 -20.09 102.39 40 70 965 -20.20 102.40 TC 115 17 263
2000 SI WA 21:00:00 TS -20.26 101.55 1277 1277 P_____P_____P_ SH162000 -20.26 101.57 TY 110 3 -20.25 101.50 40 70 965 -20.26 101.57 TC 110 16 263
2000 SI WA 22:00:00 TS -20.29 101.27 70 965 bom 1297 1297 P_____O_____P_ SH162000 -20.28 101.31 TY 108 3 -20.30 101.20 40 70 965 4.50 12 4 5 -20.28 101.31 TC 108 16 266
2000 SI WA 2000-03-04 00:00:00 TS -20.32 100.72 1358 1358 O_____P_____O_ jtwc_sh SH162000 -20.30 100.80 TY 105 3 -20.35 100.55 40 66 968 -20.30 100.80 TC 105 16 268
2000 SI WA 03:00:00 TS -20.33 99.89 1440 1440 P_____P_____P_ SH162000 -20.29 100.03 TY 105 3 -20.39 99.60 40 61 973 -20.29 100.03 TC 105 15 270
2000 SI WA 04:00:00 TS -20.33 99.62 60 975 bom 1470 1470 P_____O_____P_ SH162000 -20.29 99.79 TY 105 3 -20.40 99.30 30 60 975 4.00 12 4 5 -20.29 99.79 TC 105 14 269
2000 SI WA 06:00:00 TS -20.34 99.12 1521 1521 O_____P_____O_ jtwc_sh SH162000 -20.30 99.30 TY 105 3 -20.41 98.75 30 58 976 -20.30 99.30 TC 105 14 266
2000 SI WA 09:00:00 TS -20.40 98.39 1590 1590 P_____P_____P_ SH162000 -20.40 98.58 TY 105 3 -20.40 98.02 30 55 979 -20.40 98.58 TC 105 13 264
2000 SI WA 10:00:00 TS -20.43 98.16 55 980 bom 1610 1610 P_____O_____P_ SH162000 -20.44 98.35 TY 105 3 -20.40 97.80 30 55 980 4.00 4 5 -20.44 98.35 TC 105 13 264
2000 SI WA 12:00:00 TS -20.47 97.73 1659 1659 O_____P_____O_ jtwc_sh SH162000 -20.50 97.90 TY 105 3 -20.41 97.38 30 55 980 -20.50 97.90 TC 105 12 267
2000 SI WA 15:00:00 TS -20.48 97.12 1721 1721 P_____P_____P_ SH162000 -20.51 97.28 TY 97 3 -20.41 96.79 30 55 980 -20.51 97.28 TC 97 11 270
2000 SI WA 16:00:00 TS -20.47 96.92 55 980 bom 1741 1741 P_____O_____P_ SH162000 -20.51 97.08 TY 94 2 -20.40 96.60 30 55 980 4.00 4 5 -20.51 97.08 TC 94 11 272
2000 SI WA 18:00:00 TS -20.45 96.53 1782 1782 O_____P_____O_ jtwc_sh SH162000 -20.50 96.70 TY 90 2 -20.36 96.18 30 55 980 -20.50 96.70 TC 90 11 272
2000 SI WA 21:00:00 TS -20.44 95.94 1823 1823 P_____P_____P_ SH162000 -20.51 96.12 TY 82 1 -20.31 95.58 30 55 980 -20.51 96.12 TC 82 11 271
2000 SI WA 22:00:00 TS -20.44 95.76 55 980 bom 1829 1829 P_____O_____P_ SH162000 -20.51 95.94 TY 79 1 -20.30 95.40 30 55 980 4.00 4 5 -20.51 95.94 TC 79 10 270
2000 SI WA 2000-03-05 00:00:00 TS -20.44 95.43 1853 1853 O_____P_____O_ jtwc_sh SH162000 -20.50 95.60 TY 75 1 -20.31 95.10 30 55 980 -20.50 95.60 TC 75 8 271
2000 SI WA 03:00:00 TS -20.42 95.02 1878 1878 P_____P_____P_ SH162000 -20.45 95.18 TY 70 1 -20.37 94.72 30 55 980 -20.45 95.18 TC 70 7 272
2000 SI WA 04:00:00 TS -20.42 94.90 55 980 bom 1884 1884 P_____O_____P_ SH162000 -20.43 95.05 TY 68 1 -20.40 94.60 30 55 980 4.00 4 5 -20.43 95.05 TC 68 7 270
2000 SI WA 06:00:00 TS -20.42 94.65 1897 1897 O_____P_____O_ jtwc_sh SH162000 -20.40 94.80 TY 65 1 -20.47 94.35 30 55 980 -20.40 94.80 TC 65 7 267
2000 SI WA 09:00:00 TS -20.45 94.27 1932 1932 P_____P_____P_ SH162000 -20.39 94.40 TY 65 1 -20.58 94.01 30 55 980 -20.39 94.40 TC 65 7 265
2000 SI WA 10:00:00 TS -20.46 94.14 55 980 bom 1945 1945 P_____O_____P_ SH162000 -20.39 94.27 TY 65 1 -20.60 93.90 30 55 980 4.00 4 5 -20.39 94.27 TC 65 7 267
2000 SI WA 12:00:00 TS -20.47 93.90 1958 1958 O_____P_____O_ jtwc_sh SH162000 -20.40 94.00 TY 65 1 -20.61 93.69 30 55 980 -20.40 94.00 TC 65 7 270
2000 SI WA 15:00:00 TS -20.46 93.51 1985 1985 P_____P_____P_ SH162000 -20.39 93.57 TY 65 1 -20.60 93.39 30 55 980 -20.39 93.57 TC 65 7 271
2000 SI WA 16:00:00 TS -20.46 93.39 55 980 bom 1992 1992 P_____O_____P_ SH162000 -20.39 93.44 TY 65 1 -20.60 93.30 30 55 980 4.00 4 5 -20.39 93.44 TC 65 6 268
2000 SI WA 18:00:00 TS -20.48 93.18 2006 2006 O_____P_____O_ jtwc_sh SH162000 -20.40 93.20 TY 65 1 -20.63 93.13 30 55 980 -20.40 93.20 TC 65 5 262
2000 SI WA 21:00:00 TS -20.52 92.94 2027 2027 P_____P_____P_ SH162000 -20.43 92.97 TY 65 1 -20.68 92.89 30 55 980 -20.43 92.97 TC 65 4 258
2000 SI WA 22:00:00 TS -20.54 92.87 55 980 bom 2027 2027 P_____O_____P_ SH162000 -20.45 92.91 TY 65 1 -20.70 92.80 30 55 980 4.00 4 5 -20.45 92.91 TC 65 4 255
2000 SI WA 2000-03-06 00:00:00 TS -20.57 92.73 2049 2049 O_____P_____O_ jtwc_sh SH162000 -20.50 92.80 TY 65 1 -20.71 92.59 30 55 980 -20.50 92.80 TC 65 4 253
2000 SI WA 03:00:00 TS -20.64 92.49 2063 2063 P_____P_____P_ SH162000 -20.58 92.60 TY 65 1 -20.76 92.28 30 55 980 -20.58 92.60 TC 65 5 249
2000 SI WA 04:00:00 TS -20.68 92.42 55 980 bom 2079 2079 P_____O_____P_ SH162000 -20.62 92.53 TY 65 1 -20.80 92.20 30 55 980 4.00 4 5 -20.62 92.53 TC 65 5 234
2000 SI WA 06:00:00 TS -20.78 92.30 2094 2094 O_____P_____O_ jtwc_sh SH162000 -20.70 92.40 TY 65 1 -20.93 92.10 30 55 980 -20.70 92.40 TC 65 4 228
2000 SI WA 09:00:00 TS -20.93 92.13 2116 2116 P_____P_____P_ SH162000 -20.79 92.18 TY 65 1 -21.21 92.02 30 55 980 -20.79 92.18 TC 65 4 224
2000 SI WA 10:00:00 TS -20.99 92.08 55 980 bom 2125 2125 P_____O_____P_ SH162000 -20.84 92.12 TY 65 1 -21.30 92.00 30 55 980 4.00 4 5 -20.84 92.12 TC 65 5 211
2000 SI WA 12:00:00 TS -21.15 91.99 2148 2148 O_____P_____O_ jtwc_sh SH162000 -21.00 92.00 TY 65 1 -21.46 91.97 30 55 980 -21.00 92.00 TC 65 7 197
2000 SI WA 15:00:00 TS -21.56 91.90 2188 2188 P_____P_____P_ SH162000 -21.48 91.88 TY 65 1 -21.71 91.93 30 55 980 -21.48 91.88 TC 65 9 192
2000 SI WA 16:00:00 TS -21.71 91.87 55 980 bom 2196 2196 P_____O_____P_ SH162000 -21.67 91.85 TY 65 1 -21.80 91.90 30 55 980 4.00 3 5 -21.67 91.85 TC 65 9 192
2000 SI WA 18:00:00 TS -22.01 91.79 2220 2218 O_____P_____O_ jtwc_sh SH162000 -22.00 91.80 TY 65 1 -22.02 91.76 30 53 981 -22.00 91.80 TC 65 8 196
2000 SI WA 21:00:00 TS -22.31 91.68 2224 2222 P_____P_____P_ SH162000 -22.28 91.74 TY 65 1 -22.38 91.55 30 50 984 -22.28 91.74 TC 65 6 197
2000 SI WA 22:00:00 TS -22.40 91.65 50 985 bom 2222 2222 P_____O_____P_ SH162000 -22.35 91.73 TY 65 1 -22.50 91.50 30 50 985 3.50 3 5 -22.35 91.73 TC 65 5 187
2000 SI WA 2000-03-07 00:00:00 TS -22.57 91.63 2228 2223 O_____P_____O_ jtwc_sh SH162000 -22.50 91.70 TY 65 1 -22.71 91.49 30 50 985 -22.50 91.70 TC 65 6 188
2000 SI WA 03:00:00 TS -22.86 91.59 2220 2220 P_____P_____P_ SH162000 -22.79 91.61 TY 62 0 -23.00 91.56 30 50 985 -22.79 91.61 TC 62 6 186
2000 SI WA 04:00:00 TS -22.96 91.59 50 985 bom 2217 2212 P_____O_____P_ SH162000 -22.89 91.59 TY 61 0 -23.10 91.60 30 50 985 3.50 3 5 -22.89 91.59 TC 61 6 176
2000 SI WA 06:00:00 TS -23.18 91.62 2212 2185 O_____P_____O_ jtwc_sh SH162000 -23.10 91.60 TS 60 0 -23.33 91.66 30 50 985 -23.10 91.60 TC 60 7 161
2000 SI WA 09:00:00 TS -23.50 91.79 2185 2183 P_____P_____P_ SH162000 -23.43 91.80 TS 62 0 -23.63 91.76 30 50 985 -23.43 91.80 TC 62 7 152
2000 SI WA 10:00:00 TS -23.59 91.86 50 985 bom 2173 2161 P_____O_____P_ SH162000 -23.53 91.89 TS 63 0 -23.70 91.80 30 50 985 3.50 3 5 -23.53 91.89 TC 63 6 137
2000 SI WA 12:00:00 TS -23.72 92.02 2161 2128 O_____P_____O_ jtwc_sh SH162000 -23.70 92.10 TY 65 1 -23.77 91.87 30 46 986 -23.70 92.10 TC 65 5 121
2000 SI WA 15:00:00 TS -23.82 92.28 2128 2128 P_____P_____P_ SH162000 -23.83 92.44 TY 62 0 -23.80 91.97 30 41 989 -23.83 92.44 TC 62 5 110
2000 SI WA 16:00:00 TS -23.84 92.36 40 990 bom 2118 2106 P_____O_____P_ SH162000 -23.86 92.54 TY 61 0 -23.80 92.00 30 40 990 3.00 3 5 -23.86 92.54 TC 61 4 107
2000 SI WA 18:00:00 TS -23.88 92.49 2106 2094 O_____P_____O_ jtwc_sh SH162000 -23.90 92.70 TS 60 0 -23.83 92.06 30 38 991 -23.90 92.70 TC 60 3 129
2000 SI WA 21:00:00 TS -23.98 92.56 2094 2094 P_____P_____P_ SH162000 -24.03 92.76 TS 57 0 -23.88 92.16 30 35 994 -24.03 92.76 TC 57 2 153
2000 SI WA 22:00:00 TS -24.01 92.57 35 995 bom 2094 2094 P_____O_____P_ SH162000 -24.06 92.75 TS 56 0 -23.90 92.20 30 35 995 3.00 3 5 -24.06 92.75 TC 56 1 168
2000 SI WA 2000-03-08 00:00:00 TS -24.05 92.56 2094 2094 O_____P_____O_ jtwc_sh SH162000 -24.10 92.70 TS 55 0 -23.94 92.29 30 35 995 -24.10 92.70 TC 55 0 265
2000 SI WA 03:00:00 TS -24.01 92.52 2104 2104 P_____P_____P_ SH162000 -24.02 92.56 TS 50 0 -23.99 92.45 30 35 995 -24.02 92.56 TC 50 1 333
2000 SI WA 04:00:00 TS -23.99 92.51 35 995 bom 2104 2104 P_____O_____P_ SH162000 -23.98 92.52 TS 48 0 -24.00 92.50 30 35 995 3.00 3 5 -23.98 92.52 TC 48 2 14
2000 SI WA 06:00:00 TS -23.93 92.54 2106 2086 O_____P_____O_ jtwc_sh SH162000 -23.90 92.50 TS 45 0 -23.98 92.63 30 35 995 -23.90 92.50 TC 45 3 53
2000 SI WA 09:00:00 TS -23.86 92.70 2086 2079 P_____P_____P_ SH162000 -23.83 92.67 TS 37 0 -23.92 92.78 30 35 995 -23.83 92.67 TC 37 3 68
2000 SI WA 10:00:00 TS -23.84 92.78 35 995 bom 2079 2069 P_____O_____P_ SH162000 -23.81 92.76 TS 34 0 -23.90 92.80 30 35 995 3.00 3 5 -23.81 92.76 TC 34 4 80
2000 SI WA 12:00:00 TS -23.82 92.93 2069 2049 O_____P_____O_ jtwc_sh SH162000 -23.80 93.00 TD 30 -1 -23.87 92.78 30 31 996 -23.80 93.00 TC 30 4 87
2000 SI WA 15:00:00 TS -23.83 93.12 2049 2049 P_____P_____P_ SH162000 -23.83 93.43 TD 27 -1 -23.82 92.65 30 26 999 -23.83 93.43 TC 27 2 92
2000 SI WA 16:00:00 TS -23.83 93.09 25 1000 bom 2049 2049 P_____O_____P_ SH162000 -23.85 93.58 TD 26 -1 -23.80 92.60 20 25 1000 2.00 3 5 -23.85 93.58 TC 26 3 278
2000 SI WA 18:00:00 TS -23.81 92.98 2059 2059 O_____P_____O_ jtwc_sh SH162000 -23.90 93.90 TD 25 -1 -23.76 92.51 20 25 1000 -23.90 93.90 TC 25 8 280
2000 SI WA 21:00:00 NR -23.71 92.36 2121 2121 ______P_______ SH162000 TD -1 -23.71 92.36 20 25 1000 TC 9 280
2000 SI WA 22:00:00 NR -23.70 92.30 25 1000 bom 2131 2131 ______O_______ SH162000 TD -1 -23.70 92.30 20 25 1000 2.00 3 5 TC 2 274
2000 SI WA 2000-03-09 00:00:00 NR -23.70 92.23 2141 2141 ______P_______ -1 -23.70 92.23 20 25 1000 3 268
2000 SI WA 03:00:00 NR -23.71 92.03 2161 2161 ______P_______ -1 -23.71 92.03 20 25 1000 5 270
2000 SI WA 04:00:00 NR -23.70 91.90 25 1000 bom 2171 2171 ______O_______ -1 -23.70 91.90 20 25 1000 2.00 3 5 10 276
2000 SI WA 06:00:00 NR -23.66 91.47 2210 2210 ______P_______ -1 -23.66 91.47 20 25 1000 13 278
2000 SI WA 09:00:00 NR -23.54 90.72 2295 2295 ______P_______ -1 -23.54 90.72 20 25 1000 14 280
2000 SI WA 10:00:00 NR -23.50 90.50 25 1000 bom 2315 2315 ______O_______ -1 -23.50 90.50 20 25 1000 2.00 3 5 9 289
2000 SI WA 12:00:00 NR -23.40 90.26 2337 2337 ______P_______ -1 -23.40 90.26 20 25 1000 7 297
2000 SI MM 15:00:00 NR -23.25 89.95 2382 2382 ______P_______ -1 -23.25 89.95 20 25 1000 7 295
2000 SI MM 16:00:00 NR -23.20 89.80 2392 2392 ______O_______ -1 -23.20 89.80 20 25 1000 2.00 3 5 13 281
2000 SI MM 18:00:00 NR -23.13 89.27 2444 2444 ______P_______ -1 -23.13 89.27 20 23 1001 15 278
2000 SI MM 21:00:00 NR -23.03 88.42 2536 2536 ______P_______ -1 -23.03 88.42 20 20 1004 15 277
2000 SI MM 22:00:00 NR -23.00 88.20 2556 2556 ______O_______ -1 -23.00 88.20 20 20 1005 1.00 3 5 9 282
2000 SI MM 2000-03-10 00:00:00 NR -22.93 87.93 2584 2584 ______P_______ -1 -22.93 87.93 20 20 1005 5 295
2000 SI MM 03:00:00 NR -22.83 87.81 2584 2584 ______P_______ -1 -22.83 87.81 20 20 1005 3 318
2000 SI MM 04:00:00 NR -22.80 87.80 2584 ______O_______ -1 -22.80 87.80 20 20 1005 1.00 3 5 2 329